Time;durP1;ratioP1;P1;durP2;ratioP2;P2;SDS_P1;SDS_P2;PMS_P1;PMS_P2;Temp;Humidity;BMP_temperature;BMP_pressure;BME280_temperature;BME280_humidity;BME280_pressure;Samples;Min_cycle;Max_cycle;Signal;HPM_P1;HPM_P2
2022/10/07 00:00:33;;;;;;;7.61;7.08;;;;;;;11.16;70.54;101720.79;448659;118;930463;-77
2022/10/07 00:01:37;;;;;;;7.99;7.10;;;;;;;11.16;70.52;101727.09;448606;118;922984;-78
2022/10/07 00:02:40;;;;;;;8.35;7.64;;;;;;;11.15;70.54;101719.09;448747;118;922936;-76
2022/10/07 00:03:43;;;;;;;7.54;6.83;;;;;;;11.14;70.58;101718.23;448719;118;922858;-75
2022/10/07 00:04:46;;;;;;;7.06;6.44;;;;;;;11.13;70.63;101722.03;448702;118;922953;-76
2022/10/07 00:06:13;;;;;;;7.59;6.89;;;;;;;11.13;70.65;101715.72;448642;118;923115;-78
2022/10/07 00:07:16;;;;;;;7.19;6.59;;;;;;;11.12;70.75;101719.48;448485;118;923573;-76
2022/10/07 00:08:20;;;;;;;7.17;6.17;;;;;;;11.11;70.84;101715.91;448656;118;923000;-77
2022/10/07 00:09:23;;;;;;;7.33;6.63;;;;;;;11.10;70.81;101716.94;448693;118;922517;-76
2022/10/07 00:10:26;;;;;;;7.29;6.73;;;;;;;11.11;70.82;101721.36;448685;118;922982;-77
2022/10/07 00:11:29;;;;;;;6.95;6.28;;;;;;;11.11;70.87;101717.78;448750;118;922929;-76
2022/10/07 00:12:32;;;;;;;8.13;7.01;;;;;;;11.10;70.87;101718.81;448662;118;922441;-77
2022/10/07 00:13:40;;;;;;;6.99;6.36;;;;;;;11.09;70.85;101717.97;448705;118;922545;-77
2022/10/07 00:14:43;;;;;;;8.47;7.10;;;;;;;11.09;70.92;101719.84;448516;118;923190;-77
2022/10/07 00:15:46;;;;;;;7.41;6.79;;;;;;;11.08;70.81;101719.00;449398;117;922796;-78
2022/10/07 00:16:49;;;;;;;7.64;6.86;;;;;;;11.08;70.83;101720.91;451553;117;922510;-78
2022/10/07 00:17:52;;;;;;;7.03;6.28;;;;;;;11.07;70.78;101722.79;451579;117;922978;-77
2022/10/07 00:18:57;;;;;;;7.10;6.42;;;;;;;11.06;70.73;101715.63;451573;117;922525;-78
2022/10/07 00:20:01;;;;;;;7.58;6.94;;;;;;;11.05;70.69;101722.13;451447;117;923006;-77
2022/10/07 00:21:07;;;;;;;7.64;7.07;;;;;;;11.05;70.68;101713.08;451524;117;922694;-77
2022/10/07 00:22:10;;;;;;;6.77;6.27;;;;;;;11.03;70.75;101715.15;451118;117;931059;-76
2022/10/07 00:23:13;;;;;;;7.20;6.49;;;;;;;11.02;70.75;101719.79;451554;117;923019;-77
2022/10/07 00:24:17;;;;;;;7.37;6.66;;;;;;;11.00;70.71;101721.84;451576;117;922494;-77
2022/10/07 00:25:20;;;;;;;6.10;5.53;;;;;;;11.00;70.75;101715.54;451592;117;922831;-77
2022/10/07 00:26:26;;;;;;;6.58;6.01;;;;;;;10.98;70.83;101718.45;451527;117;922471;-76
2022/10/07 00:27:29;;;;;;;6.59;5.95;;;;;;;10.99;71.00;101713.84;451376;117;930543;-78
2022/10/07 00:28:33;;;;;;;7.93;6.51;;;;;;;10.99;71.04;101711.11;451616;117;922516;-76
2022/10/07 00:29:36;;;;;;;6.35;5.84;;;;;;;11.01;71.11;101719.97;451287;117;922698;-76
2022/10/07 00:30:39;;;;;;;7.60;5.96;;;;;;;11.02;71.19;101719.79;446310;118;930965;-77
2022/10/07 00:31:43;;;;;;;6.33;5.84;;;;;;;11.02;71.24;101719.79;445978;117;922468;-78
2022/10/07 00:32:45;;;;;;;6.28;5.46;;;;;;;11.04;71.21;101720.42;451601;117;922510;-77
2022/10/07 00:33:50;;;;;;;7.11;6.06;;;;;;;11.05;71.28;101713.94;449206;117;922517;-77
2022/10/07 00:34:53;;;;;;;7.08;5.74;;;;;;;11.06;71.29;101715.63;448422;118;922594;-77
2022/10/07 00:35:56;;;;;;;6.39;5.84;;;;;;;11.07;71.37;101713.75;448539;118;922799;-77
2022/10/07 00:36:59;;;;;;;6.49;5.89;;;;;;;11.08;71.32;101719.00;448496;118;922482;-76
2022/10/07 00:38:02;;;;;;;5.91;5.41;;;;;;;11.10;71.33;101716.94;448516;118;922500;-77
2022/10/07 00:39:09;;;;;;;5.72;5.22;;;;;;;11.09;71.33;101715.23;448481;118;922420;-76
2022/10/07 00:40:13;;;;;;;6.36;5.68;;;;;;;11.11;71.27;101718.63;448322;118;923115;-77
2022/10/07 00:41:20;;;;;;;6.12;5.53;;;;;;;11.11;71.24;101720.52;447776;118;922666;-77
2022/10/07 00:42:23;;;;;;;5.22;4.80;;;;;;;11.11;71.20;101718.63;447719;118;922767;-76
2022/10/07 00:43:29;;;;;;;5.92;5.23;;;;;;;11.11;71.18;101713.17;448522;118;922529;-76
2022/10/07 00:44:36;;;;;;;5.08;4.59;;;;;;;11.12;71.29;101706.69;448244;118;923024;-78
2022/10/07 00:45:41;;;;;;;5.53;5.03;;;;;;;11.13;71.35;101711.11;448246;118;922861;-77
2022/10/07 00:46:44;;;;;;;5.47;4.26;;;;;;;11.14;71.24;101707.31;448271;118;922471;-77
2022/10/07 00:47:50;;;;;;;5.74;5.25;;;;;;;11.14;71.23;101715.51;448488;118;922934;-75
2022/10/07 00:48:54;;;;;;;5.89;5.33;;;;;;;11.15;71.20;101716.36;448277;118;922960;-75
2022/10/07 00:50:01;;;;;;;5.49;4.99;;;;;;;11.15;71.20;101713.62;448407;118;922828;-76
2022/10/07 00:51:06;;;;;;;5.97;5.27;;;;;;;11.13;71.15;101713.00;448316;118;923057;-75
2022/10/07 00:52:09;;;;;;;5.14;4.75;;;;;;;11.14;71.12;101715.51;449371;116;922660;-77
2022/10/07 00:53:12;;;;;;;5.39;4.89;;;;;;;11.14;71.05;101712.78;456250;116;922622;-76
2022/10/07 00:54:17;;;;;;;5.64;5.17;;;;;;;11.14;71.02;101717.39;456141;116;922470;-77
2022/10/07 00:55:23;;;;;;;5.85;5.22;;;;;;;11.14;70.94;101715.51;456067;116;923160;-76
2022/10/07 00:56:28;;;;;;;5.38;4.92;;;;;;;11.13;71.00;101716.57;455986;116;930628;-77
2022/10/07 00:57:32;;;;;;;5.05;4.65;;;;;;;11.13;71.05;101711.11;456145;116;922625;-77
2022/10/07 00:58:38;;;;;;;6.28;5.77;;;;;;;11.14;70.98;101715.51;456013;116;930529;-76
2022/10/07 00:59:42;;;;;;;6.09;5.20;;;;;;;11.13;70.95;101716.57;455973;116;930470;-76
2022/10/07 01:00:45;;;;;;;5.99;5.46;;;;;;;11.14;70.93;101718.23;456214;116;922578;-76
2022/10/07 01:01:49;;;;;;;6.09;5.42;;;;;;;11.13;70.91;101715.72;456167;116;922505;-77
2022/10/07 01:02:52;;;;;;;5.37;4.90;;;;;;;11.13;70.85;101719.30;456100;116;930552;-77
2022/10/07 01:03:55;;;;;;;5.94;5.39;;;;;;;11.13;70.86;101716.57;456225;116;922513;-77
2022/10/07 01:05:02;;;;;;;5.35;4.88;;;;;;;11.13;70.85;101713.00;456142;116;923088;-77
2022/10/07 01:06:05;;;;;;;5.22;4.80;;;;;;;11.13;70.84;101715.72;456008;116;923035;-77
2022/10/07 01:07:08;;;;;;;5.70;5.01;;;;;;;11.12;70.83;101709.41;456246;116;922520;-76
2022/10/07 01:08:14;;;;;;;5.27;4.63;;;;;;;11.12;70.84;101714.87;456239;116;923005;-77
2022/10/07 01:09:19;;;;;;;11.25;5.23;;;;;;;11.12;70.88;101708.56;456020;116;922646;-77
2022/10/07 01:10:25;;;;;;;5.24;4.42;;;;;;;11.12;70.84;101712.14;456062;116;923241;-76
2022/10/07 01:11:53;;;;;;;5.54;4.92;;;;;;;11.12;70.83;101714.87;456038;116;923464;-77
2022/10/07 01:13:05;;;;;;;4.86;4.44;;;;;;;11.11;70.86;101704.98;456094;116;922650;-76
2022/10/07 01:14:12;;;;;;;4.87;4.46;;;;;;;11.10;70.84;101706.02;456068;116;923045;-76
2022/10/07 01:15:24;;;;;;;5.01;4.57;;;;;;;11.10;70.88;101705.17;438533;121;923659;-77
2022/10/07 01:16:49;;;;;;;6.21;4.75;;;;;;;11.08;70.87;101716.27;448453;116;923017;-77
2022/10/07 01:18:00;;;;;;;5.18;4.70;;;;;;;11.10;70.92;101710.63;456052;116;923400;-78
2022/10/07 01:19:09;;;;;;;4.89;4.38;;;;;;;11.07;70.90;101706.41;455941;116;923082;-76
2022/10/07 01:20:36;;;;;;;4.91;4.50;;;;;;;11.07;70.96;101711.87;439468;120;923231;-76
2022/10/07 01:22:08;;;;;;;5.41;4.88;;;;;;;11.06;70.97;101709.33;450885;116;930631;-76
2022/10/07 01:23:30;;;;;;;5.02;4.21;;;;;;;11.06;70.92;101709.33;456081;116;922699;-76
2022/10/07 01:24:42;;;;;;;5.00;4.55;;;;;;;11.03;70.87;101709.69;456089;116;923025;-76
2022/10/07 01:26:22;;;;;;;5.51;4.95;;;;;;;11.00;70.81;101710.93;456086;116;923012;-76
2022/10/07 01:27:28;;;;;;;5.41;4.55;;;;;;;10.99;70.82;101711.11;449714;116;922832;-76
2022/10/07 01:28:35;;;;;;;4.88;4.41;;;;;;;10.96;70.88;101711.51;446433;118;923202;-76
2022/10/07 01:29:54;;;;;;;5.14;4.27;;;;;;;10.95;70.93;101707.08;447004;117;923006;-76
2022/10/07 01:30:59;;;;;;;4.90;4.42;;;;;;;10.93;70.96;101715.45;452647;117;923136;-77
2022/10/07 01:32:16;;;;;;;4.46;4.03;;;;;;;10.93;70.95;101715.45;452493;117;922969;-77
2022/10/07 01:33:25;;;;;;;5.21;4.36;;;;;;;10.93;70.96;101714.59;452425;117;923110;-77
2022/10/07 01:34:33;;;;;;;5.29;4.74;;;;;;;10.92;71.02;101711.02;448072;116;923089;-76
2022/10/07 01:35:36;;;;;;;6.09;4.18;;;;;;;10.92;71.05;101710.17;448265;118;923011;-77
2022/10/07 01:36:49;;;;;;;4.47;3.81;;;;;;;10.92;71.10;101707.44;448189;118;923612;-77
2022/10/07 01:37:56;;;;;;;6.69;5.17;;;;;;;10.94;71.14;101710.84;447967;118;923055;-77
2022/10/07 01:39:02;;;;;;;4.58;4.18;;;;;;;10.95;71.27;101707.08;448311;118;923131;-77
2022/10/07 01:40:17;;;;;;;4.53;4.17;;;;;;;10.99;71.33;101708.38;440130;120;922732;-77
2022/10/07 01:41:22;;;;;;;4.80;4.17;;;;;;;11.00;71.40;101707.36;442010;118;923686;-77
2022/10/07 01:42:26;;;;;;;5.04;3.80;;;;;;;11.01;71.28;101707.17;448392;118;922552;-77
2022/10/07 01:43:31;;;;;;;4.86;4.37;;;;;;;11.03;71.23;101706.96;448298;118;922595;-76
2022/10/07 01:44:37;;;;;;;4.11;3.72;;;;;;;11.02;71.17;101706.14;448290;118;922418;-77
2022/10/07 01:45:40;;;;;;;4.98;4.11;;;;;;;11.03;71.09;101713.27;448255;118;922980;-77
2022/10/07 01:46:46;;;;;;;5.76;3.97;;;;;;;11.03;71.01;101706.96;448379;118;923047;-77
2022/10/07 01:47:50;;;;;;;3.98;3.62;;;;;;;11.03;71.13;101712.42;448257;118;930598;-77
2022/10/07 01:48:53;;;;;;;10.04;4.58;;;;;;;11.03;71.03;101713.27;448416;118;922535;-77
2022/10/07 01:49:57;;;;;;;5.62;4.04;;;;;;;11.04;71.02;101714.11;448477;118;923340;-77
2022/10/07 01:51:01;;;;;;;4.28;3.87;;;;;;;11.04;71.01;101706.78;448420;118;922483;-77
2022/10/07 01:52:25;;;;;;;4.91;4.08;;;;;;;11.05;71.00;101713.08;448787;116;922526;-77
2022/10/07 01:53:49;;;;;;;4.94;4.04;;;;;;;11.06;70.98;101714.78;455988;116;923531;-76
2022/10/07 01:55:08;;;;;;;4.95;3.97;;;;;;;11.05;70.96;101715.81;456043;116;923111;-77
2022/10/07 01:56:24;;;;;;;4.69;4.15;;;;;;;11.04;71.10;101711.39;456029;116;923072;-76
2022/10/07 01:57:31;;;;;;;4.64;3.98;;;;;;;11.03;71.11;101715.99;456054;116;923016;-76
2022/10/07 01:58:57;;;;;;;4.97;4.40;;;;;;;11.02;71.13;101711.59;455116;116;923007;-76
2022/10/07 02:00:12;;;;;;;4.13;3.79;;;;;;;11.02;71.13;101716.20;455125;116;922920;-76
2022/10/07 02:01:24;;;;;;;4.71;3.83;;;;;;;11.01;71.12;101718.09;456017;116;922998;-77
2022/10/07 02:02:55;;;;;;;4.63;3.74;;;;;;;11.01;71.09;101718.09;455552;116;923050;-76
2022/10/07 02:04:29;;;;;;;4.17;3.86;;;;;;;11.01;71.10;101728.16;456046;116;923030;-77
2022/10/07 02:06:01;;;;;;;4.40;3.98;;;;;;;11.00;71.11;101715.54;456029;116;923037;-77
2022/10/07 02:07:38;;;;;;;4.36;3.77;;;;;;;10.99;71.15;101716.57;456104;116;923182;-77
2022/10/07 02:08:47;;;;;;;4.49;3.69;;;;;;;10.98;71.26;101721.18;456134;116;923111;-76
2022/10/07 02:10:28;;;;;;;4.56;3.86;;;;;;;10.97;71.30;101716.75;456055;116;923041;-75
2022/10/07 02:11:36;;;;;;;4.01;3.64;;;;;;;10.96;71.24;101722.42;456074;116;923228;-76
2022/10/07 02:12:44;;;;;;;5.98;4.53;;;;;;;10.96;71.24;101719.70;455982;116;923034;-77
2022/10/07 02:14:00;;;;;;;4.32;3.81;;;;;;;10.95;71.24;101715.27;455748;116;923128;-76
2022/10/07 02:15:28;;;;;;;4.42;3.81;;;;;;;10.95;71.23;101715.27;455956;116;923116;-77
2022/10/07 02:16:35;;;;;;;4.61;4.04;;;;;;;10.96;71.27;101716.97;448342;118;923391;-78
2022/10/07 02:17:41;;;;;;;5.01;3.63;;;;;;;10.96;71.32;101709.62;448309;118;923110;-77
2022/10/07 02:18:48;;;;;;;5.21;3.97;;;;;;;10.98;71.40;101717.60;448308;118;922601;-77
2022/10/07 02:19:55;;;;;;;4.61;4.21;;;;;;;10.99;71.42;101720.15;448295;118;923096;-77
2022/10/07 02:21:02;;;;;;;4.89;3.82;;;;;;;11.02;71.49;101716.20;448336;118;923180;-76
2022/10/07 02:22:07;;;;;;;5.93;3.70;;;;;;;11.03;71.50;101715.99;448341;118;922739;-76
2022/10/07 02:23:13;;;;;;;4.20;3.90;;;;;;;11.06;71.44;101720.24;447925;116;923582;-76
2022/10/07 02:24:19;;;;;;;4.66;3.66;;;;;;;11.07;71.42;101720.06;446387;118;922567;-76
2022/10/07 02:25:25;;;;;;;4.29;3.88;;;;;;;11.10;71.37;101716.09;446362;118;923292;-75
2022/10/07 02:26:31;;;;;;;4.29;3.81;;;;;;;11.11;71.28;101718.63;446368;118;923061;-76
2022/10/07 02:27:37;;;;;;;4.13;3.54;;;;;;;11.12;71.31;101720.33;446402;118;923071;-77
2022/10/07 02:28:42;;;;;;;5.32;3.62;;;;;;;11.13;71.26;101724.77;446407;118;923054;-77
2022/10/07 02:29:48;;;;;;;4.14;3.75;;;;;;;11.14;71.30;101711.93;447814;117;922591;-77
2022/10/07 02:30:55;;;;;;;4.58;3.47;;;;;;;11.16;71.27;101723.52;452693;117;923051;-77
2022/10/07 02:32:02;;;;;;;3.97;3.53;;;;;;;11.17;71.18;101720.61;454881;116;923027;-77
2022/10/07 02:33:07;;;;;;;4.21;3.56;;;;;;;11.17;71.13;101723.34;455554;116;922997;-78
2022/10/07 02:34:13;;;;;;;4.16;3.75;;;;;;;11.18;70.99;101718.72;451581;116;922441;-77
2022/10/07 02:35:22;;;;;;;4.11;3.56;;;;;;;11.17;70.94;101715.14;446646;118;930691;-77
2022/10/07 02:36:41;;;;;;;4.07;3.33;;;;;;;11.18;70.97;101719.58;446469;118;923032;-76
2022/10/07 02:37:48;;;;;;;4.33;3.89;;;;;;;11.18;70.95;101719.58;445939;118;923097;-78
2022/10/07 02:38:52;;;;;;;4.08;3.66;;;;;;;11.18;70.95;101716.84;446516;118;923047;-78
2022/10/07 02:39:56;;;;;;;4.37;3.76;;;;;;;11.18;70.98;101716.84;446604;118;922613;-77
2022/10/07 02:41:30;;;;;;;4.73;3.78;;;;;;;11.19;71.00;101721.23;446452;118;922562;-78
2022/10/07 02:42:39;;;;;;;3.89;3.42;;;;;;;11.22;70.98;101730.95;446338;118;930511;-78
2022/10/07 02:43:48;;;;;;;4.20;3.81;;;;;;;11.20;70.97;101722.09;446470;118;923010;-77
2022/10/07 02:45:01;;;;;;;4.37;3.69;;;;;;;11.21;71.05;101729.25;446402;118;922791;-77
2022/10/07 02:46:07;;;;;;;3.88;3.54;;;;;;;11.22;71.19;101725.48;446424;118;923066;-77
2022/10/07 02:47:15;;;;;;;5.04;3.35;;;;;;;11.23;71.14;101729.91;446519;118;923038;-77
2022/10/07 02:48:24;;;;;;;4.64;3.69;;;;;;;11.25;71.06;101730.55;446507;118;923018;-77
2022/10/07 02:49:28;;;;;;;4.11;3.74;;;;;;;11.23;70.99;101727.19;446423;118;923019;-77
2022/10/07 02:50:38;;;;;;;4.35;3.82;;;;;;;11.23;71.01;101725.30;446501;118;922934;-77
2022/10/07 02:51:50;;;;;;;4.93;4.22;;;;;;;11.24;70.96;101728.88;446394;118;930570;-76
2022/10/07 02:52:55;;;;;;;5.93;3.94;;;;;;;11.24;70.93;101728.88;453065;116;922995;-76
2022/10/07 02:54:01;;;;;;;5.28;3.68;;;;;;;11.22;70.80;101717.30;454186;116;922883;-77
2022/10/07 02:55:08;;;;;;;5.46;4.29;;;;;;;11.22;70.86;101725.48;454076;116;930507;-76
2022/10/07 02:56:12;;;;;;;4.89;3.92;;;;;;;11.22;70.81;101720.02;454127;116;923075;-76
2022/10/07 02:57:18;;;;;;;5.35;4.27;;;;;;;11.22;70.79;101720.02;454255;116;922999;-76
2022/10/07 02:58:24;;;;;;;4.37;4.01;;;;;;;11.23;70.74;101716.27;454124;116;922988;-78
2022/10/07 02:59:30;;;;;;;6.33;4.28;;;;;;;11.22;70.76;101720.88;454147;116;923149;-77
2022/10/07 03:00:37;;;;;;;4.29;3.93;;;;;;;11.21;70.66;101718.33;454088;116;923074;-77
2022/10/07 03:01:45;;;;;;;4.33;3.93;;;;;;;11.21;70.64;101718.33;445791;119;923139;-77
2022/10/07 03:02:55;;;;;;;4.24;3.76;;;;;;;11.20;70.63;101724.82;446810;116;923159;-77
2022/10/07 03:03:59;;;;;;;;;;;;;;;11.19;70.47;101718.51;457821;116;922754;-77
2022/10/07 03:05:05;;;;;;;5.47;3.96;;;;;;;11.15;70.47;101721.81;454392;116;922422;-76
2022/10/07 03:06:08;;;;;;;5.36;4.36;;;;;;;11.15;70.47;101721.81;454175;116;923099;-76
2022/10/07 03:07:12;;;;;;;4.86;4.31;;;;;;;11.12;70.54;101723.06;454308;116;923585;-75
2022/10/07 03:08:15;;;;;;;4.19;3.84;;;;;;;11.11;70.51;101723.24;454263;116;922517;-77
2022/10/07 03:09:19;;;;;;;4.42;4.03;;;;;;;11.10;70.47;101727.86;454305;116;922854;-75
2022/10/07 03:10:22;;;;;;;4.65;4.15;;;;;;;11.09;70.38;101725.30;454276;116;922480;-75
2022/10/07 03:11:25;;;;;;;4.59;4.15;;;;;;;11.08;70.25;101727.19;454275;116;922555;-77
2022/10/07 03:12:28;;;;;;;4.32;3.93;;;;;;;11.07;70.22;101727.40;454343;116;923345;-77
2022/10/07 03:13:34;;;;;;;4.87;4.47;;;;;;;11.04;70.17;101728.61;454348;116;922620;-76
2022/10/07 03:14:37;;;;;;;4.04;3.71;;;;;;;11.03;70.20;101726.91;454131;116;923562;-76
2022/10/07 03:15:42;;;;;;;6.19;4.06;;;;;;;11.02;70.11;101727.12;445768;119;922981;-76
2022/10/07 03:16:47;;;;;;;4.94;4.23;;;;;;;11.01;70.05;101723.55;446416;116;923040;-77
2022/10/07 03:17:50;;;;;;;4.88;4.48;;;;;;;10.99;69.94;101730.22;454375;116;922535;-76
2022/10/07 03:18:53;;;;;;;5.17;4.66;;;;;;;10.97;69.87;101724.13;454369;116;923014;-76
2022/10/07 03:19:58;;;;;;;5.20;4.75;;;;;;;10.94;69.80;101728.06;446174;116;922855;-76
2022/10/07 03:21:01;;;;;;;5.95;5.39;;;;;;;10.88;69.63;101728.81;444576;119;930557;-76
2022/10/07 03:22:04;;;;;;;5.33;4.71;;;;;;;10.88;69.63;101728.81;436780;121;923417;-77
2022/10/07 03:23:08;;;;;;;5.03;4.63;;;;;;;10.86;69.51;101736.36;437028;119;922595;-77
2022/10/07 03:24:11;;;;;;;4.83;4.41;;;;;;;10.82;69.50;101727.69;444638;119;930632;-75
2022/10/07 03:25:16;;;;;;;6.49;4.43;;;;;;;10.81;69.54;101736.05;444678;117;922931;-76
2022/10/07 03:26:20;;;;;;;4.61;4.26;;;;;;;10.78;69.58;101733.71;444655;119;922898;-76
2022/10/07 03:27:23;;;;;;;5.28;4.55;;;;;;;10.77;69.79;101734.74;444678;119;922855;-77
2022/10/07 03:28:30;;;;;;;4.29;3.91;;;;;;;10.74;69.73;101733.25;444778;119;922580;-76
2022/10/07 03:29:34;;;;;;;4.89;4.49;;;;;;;10.73;69.74;101742.47;436799;119;923150;-76
2022/10/07 03:30:37;;;;;;;4.95;4.40;;;;;;;10.72;69.78;101739.92;444721;117;923194;-76
2022/10/07 03:31:41;;;;;;;4.07;3.74;;;;;;;10.71;69.85;101732.77;451293;117;923060;-77
2022/10/07 03:32:44;;;;;;;5.72;4.12;;;;;;;10.71;69.91;101740.95;450255;118;922519;-77
2022/10/07 03:33:48;;;;;;;4.32;3.91;;;;;;;10.70;70.13;101736.52;451211;116;922558;-78
2022/10/07 03:34:53;;;;;;;4.80;3.80;;;;;;;10.71;70.17;101738.22;445863;119;922766;-76
2022/10/07 03:35:56;;;;;;;4.26;3.91;;;;;;;10.71;70.23;101739.06;447821;116;923093;-76
2022/10/07 03:37:00;;;;;;;6.41;3.99;;;;;;;10.72;70.33;101735.31;456262;116;923002;-76
2022/10/07 03:38:07;;;;;;;4.86;4.23;;;;;;;10.73;70.26;101738.89;456165;116;922504;-77
2022/10/07 03:39:08;;;;;;;4.38;3.98;;;;;;;10.73;70.26;101738.89;456044;116;923035;-76
2022/10/07 03:40:12;;;;;;;4.53;3.74;;;;;;;10.72;70.18;101734.46;456187;116;922557;-76
2022/10/07 03:41:16;;;;;;;4.74;4.26;;;;;;;10.70;70.06;101731.91;456241;116;930506;-77
2022/10/07 03:42:19;;;;;;;4.78;4.40;;;;;;;10.68;70.00;101734.00;456202;116;922589;-76
2022/10/07 03:43:23;;;;;;;7.29;4.35;;;;;;;10.68;69.95;101735.88;456205;116;922878;-76
2022/10/07 03:44:26;;;;;;;5.27;4.46;;;;;;;10.66;69.94;101735.20;456081;116;930814;-76
2022/10/07 03:45:30;;;;;;;4.21;3.81;;;;;;;10.64;69.96;101742.75;456162;116;922991;-76
2022/10/07 03:46:33;;;;;;;6.82;4.09;;;;;;;10.63;69.94;101732.88;456141;116;922465;-76
2022/10/07 03:47:37;;;;;;;3.77;3.42;;;;;;;10.61;70.04;101738.50;456661;116;930228;-76
2022/10/07 03:48:40;;;;;;;5.64;3.93;;;;;;;10.60;70.11;101738.68;448603;118;923155;-76
2022/10/07 03:49:44;;;;;;;5.45;3.96;;;;;;;10.60;70.22;101733.22;449124;116;922617;-76
2022/10/07 03:50:51;;;;;;;3.94;3.58;;;;;;;10.60;70.31;101739.53;457040;116;930298;-76
2022/10/07 03:51:55;;;;;;;4.28;3.93;;;;;;;10.60;70.51;101742.25;457021;116;922774;-77
2022/10/07 03:52:58;;;;;;;4.69;3.72;;;;;;;10.62;70.53;101744.81;449396;116;922330;-78
2022/10/07 03:54:01;;;;;;;4.84;4.23;;;;;;;10.63;70.58;101732.88;440558;120;922724;-77
2022/10/07 03:55:07;;;;;;;4.78;4.31;;;;;;;10.64;70.68;101734.56;440753;118;922657;-76
2022/10/07 03:56:10;;;;;;;5.04;4.06;;;;;;;10.66;70.72;101735.20;448308;118;922531;-77
2022/10/07 03:58:35;;;;;;;6.39;4.82;;;;;;;10.70;70.76;101739.24;448295;118;923012;-78
2022/10/07 03:59:39;;;;;;;4.95;4.52;;;;;;;10.72;70.72;101729.00;448439;118;922549;-77
2022/10/07 04:00:42;;;;;;;6.28;5.21;;;;;;;10.71;70.67;101738.22;448299;118;930531;-77
2022/10/07 04:01:46;;;;;;;5.56;5.11;;;;;;;10.71;70.68;101732.77;448447;118;922554;-77
2022/10/07 04:02:50;;;;;;;5.99;4.91;;;;;;;10.71;70.73;101730.88;448410;118;922906;-77
2022/10/07 04:03:54;;;;;;;5.89;5.39;;;;;;;10.73;70.82;101736.16;448233;118;928901;-76
2022/10/07 04:04:57;;;;;;;7.82;6.49;;;;;;;10.74;70.86;101741.44;448354;118;923000;-77
2022/10/07 04:06:02;;;;;;;7.29;6.65;;;;;;;10.74;70.81;101735.98;448461;118;922535;-77
2022/10/07 04:07:07;;;;;;;7.33;6.54;;;;;;;10.75;70.88;101740.38;440111;120;922536;-77
2022/10/07 04:08:11;;;;;;;7.84;7.15;;;;;;;10.76;70.71;101738.50;440584;118;922526;-75
2022/10/07 04:09:14;;;;;;;7.24;6.53;;;;;;;10.75;70.65;101736.83;448436;118;922954;-77
2022/10/07 04:10:18;;;;;;;8.09;6.65;;;;;;;10.75;70.60;101736.83;448412;118;923594;-78
2022/10/07 04:11:23;;;;;;;7.24;6.64;;;;;;;10.75;70.62;101734.10;448311;118;923493;-77
2022/10/07 04:12:32;;;;;;;6.75;6.09;;;;;;;10.76;70.68;101733.05;448366;118;922512;-77
2022/10/07 04:13:32;;;;;;;6.14;5.61;;;;;;;10.76;70.61;101733.05;448081;118;930542;-77
2022/10/07 04:14:36;;;;;;;6.41;5.81;;;;;;;10.77;70.67;101737.47;440310;120;923007;-76
2022/10/07 04:15:39;;;;;;;6.78;6.23;;;;;;;10.78;70.76;101728.26;442015;116;923026;-77
2022/10/07 04:16:43;;;;;;;6.78;5.98;;;;;;;10.80;70.70;101726.20;455064;116;922709;-79
2022/10/07 04:17:48;;;;;;;6.58;5.62;;;;;;;10.80;70.63;101732.50;454986;116;930524;-77
2022/10/07 04:18:55;;;;;;;6.19;5.55;;;;;;;10.82;70.61;101735.02;454883;116;930552;-77
2022/10/07 04:19:59;;;;;;;9.00;5.89;;;;;;;10.81;70.63;101736.05;454976;116;923018;-77
2022/10/07 04:21:03;;;;;;;5.88;5.40;;;;;;;10.82;70.68;101744.06;455026;116;923087;-77
2022/10/07 04:22:07;;;;;;;7.88;6.13;;;;;;;10.83;70.62;101744.91;454993;116;922992;-77
2022/10/07 04:23:12;;;;;;;5.98;5.41;;;;;;;10.82;70.51;101744.06;454935;116;922978;-77
2022/10/07 04:24:15;;;;;;;6.01;5.02;;;;;;;10.83;70.45;101739.45;455054;116;922947;-77
2022/10/07 04:25:33;;;;;;;5.76;4.95;;;;;;;10.81;70.43;101742.36;455113;116;922514;-77
2022/10/07 04:26:38;;;;;;;5.39;4.89;;;;;;;10.81;70.54;101739.63;454846;116;923163;-78
2022/10/07 04:27:41;;;;;;;5.94;4.99;;;;;;;10.82;70.53;101748.66;455161;116;922971;-77
2022/10/07 04:28:47;;;;;;;6.25;5.61;;;;;;;10.81;70.52;101744.23;453722;116;922606;-78
2022/10/07 04:29:52;;;;;;;6.14;5.56;;;;;;;10.81;70.56;101749.69;454643;116;922732;-77
2022/10/07 04:30:56;;;;;;;8.67;6.17;;;;;;;10.81;70.52;101745.09;454440;116;922508;-78
2022/10/07 04:32:01;;;;;;;6.42;5.73;;;;;;;10.82;70.66;101745.94;455527;116;922577;-76
2022/10/07 04:33:04;;;;;;;6.92;6.31;;;;;;;10.82;70.65;101751.39;456257;116;922567;-75
2022/10/07 04:34:07;;;;;;;6.03;5.35;;;;;;;10.83;70.75;101753.94;456195;116;922508;-77
2022/10/07 04:35:12;;;;;;;6.91;6.22;;;;;;;10.86;70.77;101752.73;455912;116;930438;-78
2022/10/07 04:36:15;;;;;;;6.78;6.29;;;;;;;10.87;70.81;101751.67;454268;116;922897;-76
2022/10/07 04:37:20;;;;;;;7.52;6.69;;;;;;;10.87;70.87;101748.94;451175;117;930456;-78
2022/10/07 04:38:23;;;;;;;7.87;6.89;;;;;;;10.90;70.82;101759.50;453491;117;922515;-77
2022/10/07 04:39:28;;;;;;;7.40;6.75;;;;;;;10.91;70.79;101757.62;453065;117;922511;-78
2022/10/07 04:40:37;;;;;;;7.87;6.82;;;;;;;10.92;70.72;101751.95;450570;117;922810;-78
2022/10/07 04:41:40;;;;;;;7.45;6.66;;;;;;;10.93;70.70;101758.26;453286;117;922790;-78
2022/10/07 04:44:09;;;;;;;7.81;7.11;;;;;;;10.93;70.57;101753.65;453249;117;922987;-77
2022/10/07 04:45:14;;;;;;;6.83;6.01;;;;;;;10.93;70.55;101750.07;452947;117;922497;-78
2022/10/07 04:46:17;;;;;;;7.37;5.68;;;;;;;10.92;70.56;101751.95;453361;117;923210;-77
2022/10/07 04:47:25;;;;;;;8.68;5.14;;;;;;;10.93;70.59;101752.80;453086;117;923582;-77
2022/10/07 04:48:29;;;;;;;6.21;5.60;;;;;;;10.93;70.61;101756.38;445087;119;922579;-76
2022/10/07 04:49:32;;;;;;;6.80;5.75;;;;;;;10.93;70.73;101759.11;445412;117;922597;-78
2022/10/07 04:50:37;;;;;;;8.08;5.33;;;;;;;10.95;70.75;101758.92;453329;117;923026;-77
2022/10/07 04:51:41;;;;;;;5.74;4.07;;;;;;;10.96;70.63;101764.20;453192;117;930438;-77
2022/10/07 04:52:45;;;;;;;6.03;5.06;;;;;;;10.96;70.63;101764.20;448009;117;922932;-76
2022/10/07 04:53:52;;;;;;;6.66;5.61;;;;;;;10.96;70.65;101764.20;445516;119;922593;-77
2022/10/07 04:54:58;;;;;;;6.24;5.16;;;;;;;10.98;70.67;101762.11;445021;119;923135;-76
2022/10/07 04:56:02;;;;;;;5.63;5.13;;;;;;;10.99;70.70;101771.15;445740;119;922854;-77
2022/10/07 04:57:08;;;;;;;6.26;5.45;;;;;;;10.99;70.80;101769.27;445729;119;922611;-77
2022/10/07 04:58:12;;;;;;;5.71;5.22;;;;;;;11.02;70.86;101776.25;445571;119;922973;-76
2022/10/07 04:59:15;;;;;;;7.05;5.37;;;;;;;11.04;71.00;101761.36;445724;119;922508;-75
2022/10/07 05:00:20;;;;;;;6.07;5.11;;;;;;;11.07;71.05;101771.06;445596;119;922964;-77
2022/10/07 05:01:24;;;;;;;8.36;5.11;;;;;;;11.09;71.06;101772.55;445752;119;922920;-77
2022/10/07 05:02:27;;;;;;;5.32;4.71;;;;;;;11.11;71.07;101775.95;445816;119;922512;-76
2022/10/07 05:03:30;;;;;;;6.66;5.56;;;;;;;11.14;71.12;101774.71;445760;119;922884;-77
2022/10/07 05:04:34;;;;;;;5.28;4.77;;;;;;;11.15;71.13;101779.98;445705;119;922491;-75
2022/10/07 05:05:40;;;;;;;6.34;4.90;;;;;;;11.17;71.13;101775.20;445686;119;930492;-76
2022/10/07 05:06:43;;;;;;;5.13;4.66;;;;;;;11.18;71.11;101774.17;437533;121;923146;-77
2022/10/07 05:07:51;;;;;;;5.58;4.42;;;;;;;11.20;71.16;101776.69;438002;119;923101;-77
2022/10/07 05:08:55;;;;;;;9.70;4.92;;;;;;;11.24;71.19;101776.14;445535;119;923045;-76
2022/10/07 05:09:58;;;;;;;4.86;4.39;;;;;;;11.26;71.20;101771.31;445693;119;923283;-75